sensor_id;sensor_type;location;lat;lon;timestamp;P1;durP1;ratioP1;P2;durP2;ratioP2
48285;SDS011;34102;47.716;10.296;2023-02-11T06:32:28;8.52;;;4.18;;
48285;SDS011;34102;47.716;10.296;2023-02-11T06:34:54;9.00;;;4.35;;
48285;SDS011;34102;47.716;10.296;2023-02-11T06:37:19;6.68;;;3.65;;
48285;SDS011;34102;47.716;10.296;2023-02-11T06:39:47;8.40;;;4.05;;
48285;SDS011;34102;47.716;10.296;2023-02-11T06:42:12;7.03;;;3.85;;
48285;SDS011;34102;47.716;10.296;2023-02-11T06:44:37;5.45;;;3.30;;
48285;SDS011;34102;47.716;10.296;2023-02-11T06:47:03;9.00;;;4.15;;
48285;SDS011;34102;47.716;10.296;2023-02-11T06:49:28;8.35;;;4.07;;
48285;SDS011;34102;47.716;10.296;2023-02-11T06:51:53;10.43;;;4.47;;
48285;SDS011;34102;47.716;10.296;2023-02-11T06:54:18;7.15;;;3.53;;
48285;SDS011;34102;47.716;10.296;2023-02-11T06:56:44;6.22;;;3.45;;
48285;SDS011;34102;47.716;10.296;2023-02-11T06:59:13;7.47;;;3.60;;
48285;SDS011;34102;47.716;10.296;2023-02-11T07:01:39;7.70;;;3.05;;
48285;SDS011;34102;47.716;10.296;2023-02-11T07:04:04;5.85;;;3.00;;
48285;SDS011;34102;47.716;10.296;2023-02-11T07:06:29;5.82;;;2.92;;
48285;SDS011;34102;47.716;10.296;2023-02-11T07:08:54;6.00;;;3.17;;
48285;SDS011;34102;47.716;10.296;2023-02-11T07:11:21;20.17;;;9.75;;
48285;SDS011;34102;47.716;10.296;2023-02-11T07:13:48;55.17;;;24.13;;
48285;SDS011;34102;47.716;10.296;2023-02-11T07:16:14;9.20;;;4.82;;
48285;SDS011;34102;47.716;10.296;2023-02-11T07:18:41;12.75;;;4.70;;
48285;SDS011;34102;47.716;10.296;2023-02-11T07:21:07;8.18;;;3.65;;
48285;SDS011;34102;47.716;10.296;2023-02-11T07:23:32;9.18;;;3.97;;
48285;SDS011;34102;47.716;10.296;2023-02-11T07:26:01;10.65;;;4.00;;
48285;SDS011;34102;47.716;10.296;2023-02-11T07:28:26;7.55;;;4.00;;
48285;SDS011;34102;47.716;10.296;2023-02-11T07:30:51;13.35;;;5.47;;
48285;SDS011;34102;47.716;10.296;2023-02-11T07:33:17;8.32;;;4.80;;
48285;SDS011;34102;47.716;10.296;2023-02-11T07:35:42;8.68;;;5.28;;
48285;SDS011;34102;47.716;10.296;2023-02-11T07:38:07;9.40;;;4.57;;
48285;SDS011;34102;47.716;10.296;2023-02-11T07:40:32;10.10;;;5.55;;
48285;SDS011;34102;47.716;10.296;2023-02-11T07:43:00;9.70;;;5.55;;
48285;SDS011;34102;47.716;10.296;2023-02-11T07:45:26;10.45;;;5.43;;
48285;SDS011;34102;47.716;10.296;2023-02-11T07:47:51;92.75;;;42.03;;
48285;SDS011;34102;47.716;10.296;2023-02-11T07:50:16;18.65;;;9.13;;
48285;SDS011;34102;47.716;10.296;2023-02-11T07:52:41;13.60;;;6.25;;
48285;SDS011;34102;47.716;10.296;2023-02-11T07:55:07;11.82;;;5.63;;
48285;SDS011;34102;47.716;10.296;2023-02-11T07:57:33;8.48;;;3.97;;
48285;SDS011;34102;47.716;10.296;2023-02-11T07:59:59;7.43;;;3.80;;
48285;SDS011;34102;47.716;10.296;2023-02-11T08:02:24;6.10;;;3.22;;
48285;SDS011;34102;47.716;10.296;2023-02-11T08:04:49;6.72;;;2.80;;
48285;SDS011;34102;47.716;10.296;2023-02-11T08:07:15;7.68;;;3.20;;
48285;SDS011;34102;47.716;10.296;2023-02-11T08:09:41;9.00;;;3.70;;
48285;SDS011;34102;47.716;10.296;2023-02-11T08:12:06;8.98;;;5.60;;
48285;SDS011;34102;47.716;10.296;2023-02-11T08:14:33;12.02;;;5.50;;
48285;SDS011;34102;47.716;10.296;2023-02-11T08:16:58;12.68;;;5.88;;
48285;SDS011;34102;47.716;10.296;2023-02-11T08:19:23;11.60;;;5.38;;
48285;SDS011;34102;47.716;10.296;2023-02-11T08:21:49;11.00;;;5.60;;
48285;SDS011;34102;47.716;10.296;2023-02-11T08:24:14;9.65;;;5.93;;
48285;SDS011;34102;47.716;10.296;2023-02-11T08:26:39;9.35;;;5.30;;
48285;SDS011;34102;47.716;10.296;2023-02-11T08:29:08;8.35;;;5.20;;
48285;SDS011;34102;47.716;10.296;2023-02-11T08:31:35;9.18;;;5.03;;
48285;SDS011;34102;47.716;10.296;2023-02-11T08:34:00;10.82;;;5.60;;
48285;SDS011;34102;47.716;10.296;2023-02-11T08:36:30;8.30;;;4.78;;
48285;SDS011;34102;47.716;10.296;2023-02-11T08:38:59;11.18;;;6.20;;
48285;SDS011;34102;47.716;10.296;2023-02-11T08:41:27;8.85;;;5.57;;
48285;SDS011;34102;47.716;10.296;2023-02-11T08:43:52;8.95;;;5.10;;
48285;SDS011;34102;47.716;10.296;2023-02-11T08:46:18;12.65;;;6.07;;
48285;SDS011;34102;47.716;10.296;2023-02-11T08:48:44;10.98;;;6.07;;
48285;SDS011;34102;47.716;10.296;2023-02-11T08:51:23;13.20;;;6.68;;
48285;SDS011;34102;47.716;10.296;2023-02-11T08:53:49;13.20;;;5.45;;
48285;SDS011;34102;47.716;10.296;2023-02-11T08:56:15;8.20;;;5.03;;
48285;SDS011;34102;47.716;10.296;2023-02-11T08:58:41;12.20;;;7.05;;
48285;SDS011;34102;47.716;10.296;2023-02-11T09:01:13;11.30;;;5.63;;
48285;SDS011;34102;47.716;10.296;2023-02-11T09:03:38;8.98;;;5.05;;
48285;SDS011;34102;47.716;10.296;2023-02-11T09:06:05;6.28;;;3.78;;
48285;SDS011;34102;47.716;10.296;2023-02-11T09:08:32;8.80;;;3.42;;
48285;SDS011;34102;47.716;10.296;2023-02-11T09:10:57;7.28;;;3.30;;
48285;SDS011;34102;47.716;10.296;2023-02-11T09:13:23;7.53;;;3.47;;
48285;SDS011;34102;47.716;10.296;2023-02-11T09:15:48;6.28;;;3.22;;
48285;SDS011;34102;47.716;10.296;2023-02-11T09:18:13;5.78;;;3.35;;
48285;SDS011;34102;47.716;10.296;2023-02-11T09:20:38;8.13;;;3.22;;
48285;SDS011;34102;47.716;10.296;2023-02-11T09:23:04;8.27;;;3.58;;
48285;SDS011;34102;47.716;10.296;2023-02-11T09:25:29;5.30;;;3.15;;
48285;SDS011;34102;47.716;10.296;2023-02-11T09:27:54;7.93;;;3.60;;
48285;SDS011;34102;47.716;10.296;2023-02-11T09:30:19;5.07;;;2.35;;
48285;SDS011;34102;47.716;10.296;2023-02-11T09:32:45;5.30;;;2.53;;
48285;SDS011;34102;47.716;10.296;2023-02-11T09:35:10;3.63;;;2.17;;
48285;SDS011;34102;47.716;10.296;2023-02-11T09:37:35;8.68;;;2.33;;
48285;SDS011;34102;47.716;10.296;2023-02-11T09:40:01;6.47;;;2.88;;
48285;SDS011;34102;47.716;10.296;2023-02-11T09:42:36;9.93;;;2.72;;
48285;SDS011;34102;47.716;10.296;2023-02-11T09:45:03;6.75;;;2.20;;
48285;SDS011;34102;47.716;10.296;2023-02-11T09:47:31;6.20;;;2.22;;
48285;SDS011;34102;47.716;10.296;2023-02-11T09:50:01;7.40;;;3.10;;
48285;SDS011;34102;47.716;10.296;2023-02-11T09:54:59;8.55;;;2.45;;
48285;SDS011;34102;47.716;10.296;2023-02-11T09:57:25;9.48;;;2.60;;
48285;SDS011;34102;47.716;10.296;2023-02-11T09:59:52;4.05;;;2.45;;
48285;SDS011;34102;47.716;10.296;2023-02-11T10:15:12;10.52;;;2.17;;
48285;SDS011;34102;47.716;10.296;2023-02-11T10:27:42;2.85;;;1.52;;
48285;SDS011;34102;47.716;10.296;2023-02-11T10:33:17;4.15;;;1.60;;
48285;SDS011;34102;47.716;10.296;2023-02-11T10:35:22;3.03;;;1.40;;
48285;SDS011;34102;47.716;10.296;2023-02-11T10:37:48;4.32;;;1.50;;
48285;SDS011;34102;47.716;10.296;2023-02-11T10:40:14;7.30;;;1.52;;
48285;SDS011;34102;47.716;10.296;2023-02-11T10:42:40;3.13;;;1.77;;
48285;SDS011;34102;47.716;10.296;2023-02-11T10:45:15;3.78;;;1.50;;
48285;SDS011;34102;47.716;10.296;2023-02-11T10:47:42;4.55;;;1.85;;
48285;SDS011;34102;47.716;10.296;2023-02-11T10:50:16;5.78;;;1.40;;
48285;SDS011;34102;47.716;10.296;2023-02-11T10:52:41;5.72;;;2.05;;
48285;SDS011;34102;47.716;10.296;2023-02-11T10:57:42;4.00;;;2.60;;
48285;SDS011;34102;47.716;10.296;2023-02-11T11:02:44;6.82;;;3.67;;
48285;SDS011;34102;47.716;10.296;2023-02-11T11:05:17;9.68;;;4.03;;
48285;SDS011;34102;47.716;10.296;2023-02-11T11:07:53;7.93;;;3.22;;
48285;SDS011;34102;47.716;10.296;2023-02-11T11:10:30;6.95;;;3.63;;
48285;SDS011;34102;47.716;10.296;2023-02-11T11:12:57;6.05;;;2.60;;
48285;SDS011;34102;47.716;10.296;2023-02-11T11:15:24;4.53;;;2.60;;
48285;SDS011;34102;47.716;10.296;2023-02-11T11:17:50;3.65;;;1.92;;
48285;SDS011;34102;47.716;10.296;2023-02-11T11:20:32;4.32;;;1.90;;
48285;SDS011;34102;47.716;10.296;2023-02-11T11:25:33;4.13;;;2.00;;
48285;SDS011;34102;47.716;10.296;2023-02-11T11:28:00;3.97;;;2.70;;
48285;SDS011;34102;47.716;10.296;2023-02-11T11:30:27;5.28;;;2.58;;
48285;SDS011;34102;47.716;10.296;2023-02-11T11:32:55;5.10;;;2.65;;
48285;SDS011;34102;47.716;10.296;2023-02-11T11:35:26;2.70;;;1.70;;
48285;SDS011;34102;47.716;10.296;2023-02-11T11:37:52;8.73;;;2.20;;
48285;SDS011;34102;47.716;10.296;2023-02-11T11:42:43;6.05;;;3.03;;
48285;SDS011;34102;47.716;10.296;2023-02-11T11:50:39;5.95;;;3.17;;
48285;SDS011;34102;47.716;10.296;2023-02-11T11:53:17;6.85;;;3.30;;
48285;SDS011;34102;47.716;10.296;2023-02-11T11:58:14;4.72;;;2.60;;
48285;SDS011;34102;47.716;10.296;2023-02-11T12:00:55;4.90;;;2.70;;
48285;SDS011;34102;47.716;10.296;2023-02-11T12:26:16;7.35;;;4.75;;
48285;SDS011;34102;47.716;10.296;2023-02-11T12:38:55;5.57;;;3.35;;
48285;SDS011;34102;47.716;10.296;2023-02-11T12:42:06;6.22;;;3.35;;
48285;SDS011;34102;47.716;10.296;2023-02-11T12:44:34;5.80;;;3.55;;
48285;SDS011;34102;47.716;10.296;2023-02-11T12:47:03;7.95;;;3.15;;
48285;SDS011;34102;47.716;10.296;2023-02-11T12:49:36;4.63;;;2.50;;
48285;SDS011;34102;47.716;10.296;2023-02-11T12:54:32;5.18;;;2.65;;
48285;SDS011;34102;47.716;10.296;2023-02-11T12:57:01;6.95;;;3.00;;
48285;SDS011;34102;47.716;10.296;2023-02-11T12:59:40;5.53;;;2.75;;
48285;SDS011;34102;47.716;10.296;2023-02-11T13:02:14;8.77;;;3.88;;
48285;SDS011;34102;47.716;10.296;2023-02-11T13:04:42;5.50;;;3.33;;
48285;SDS011;34102;47.716;10.296;2023-02-11T13:07:15;7.15;;;3.63;;
48285;SDS011;34102;47.716;10.296;2023-02-11T13:09:44;6.50;;;3.00;;
48285;SDS011;34102;47.716;10.296;2023-02-11T13:12:12;5.45;;;3.30;;
48285;SDS011;34102;47.716;10.296;2023-02-11T13:14:58;5.50;;;3.35;;
48285;SDS011;34102;47.716;10.296;2023-02-11T13:17:28;5.90;;;3.17;;
48285;SDS011;34102;47.716;10.296;2023-02-11T13:20:01;8.50;;;3.28;;
48285;SDS011;34102;47.716;10.296;2023-02-11T13:22:37;6.03;;;3.20;;
48285;SDS011;34102;47.716;10.296;2023-02-11T13:27:56;5.28;;;3.00;;
48285;SDS011;34102;47.716;10.296;2023-02-11T13:35:31;6.53;;;3.65;;
48285;SDS011;34102;47.716;10.296;2023-02-11T13:38:01;5.70;;;3.53;;
48285;SDS011;34102;47.716;10.296;2023-02-11T13:40:31;8.65;;;3.63;;
48285;SDS011;34102;47.716;10.296;2023-02-11T13:42:57;5.90;;;3.25;;
48285;SDS011;34102;47.716;10.296;2023-02-11T13:47:49;4.75;;;3.00;;
48285;SDS011;34102;47.716;10.296;2023-02-11T13:50:23;9.40;;;3.60;;
48285;SDS011;34102;47.716;10.296;2023-02-11T13:52:55;5.95;;;3.05;;
48285;SDS011;34102;47.716;10.296;2023-02-11T13:55:23;6.88;;;3.35;;
48285;SDS011;34102;47.716;10.296;2023-02-11T14:03:16;4.28;;;2.13;;
48285;SDS011;34102;47.716;10.296;2023-02-11T14:08:59;1.45;;;0.70;;
48285;SDS011;34102;47.716;10.296;2023-02-11T14:16:32;2.25;;;0.80;;
48285;SDS011;34102;47.716;10.296;2023-02-11T14:19:00;3.78;;;1.55;;
48285;SDS011;34102;47.716;10.296;2023-02-11T14:23:52;1.25;;;0.50;;
48285;SDS011;34102;47.716;10.296;2023-02-11T14:31:24;2.13;;;0.60;;
48285;SDS011;34102;47.716;10.296;2023-02-11T14:36:43;5.47;;;2.42;;
48285;SDS011;34102;47.716;10.296;2023-02-11T14:41:39;9.90;;;3.63;;
48285;SDS011;34102;47.716;10.296;2023-02-11T14:44:06;5.43;;;3.72;;
48285;SDS011;34102;47.716;10.296;2023-02-11T14:46:35;9.55;;;4.13;;
48285;SDS011;34102;47.716;10.296;2023-02-11T14:49:01;10.73;;;4.43;;
48285;SDS011;34102;47.716;10.296;2023-02-11T14:51:28;6.78;;;4.00;;
48285;SDS011;34102;47.716;10.296;2023-02-11T14:54:19;6.93;;;3.80;;
48285;SDS011;34102;47.716;10.296;2023-02-11T14:56:43;7.35;;;4.03;;
48285;SDS011;34102;47.716;10.296;2023-02-11T14:59:17;7.68;;;3.80;;
48285;SDS011;34102;47.716;10.296;2023-02-11T15:01:52;8.73;;;3.45;;
48285;SDS011;34102;47.716;10.296;2023-02-11T15:04:31;6.88;;;3.97;;
48285;SDS011;34102;47.716;10.296;2023-02-11T15:07:04;7.10;;;3.90;;
48285;SDS011;34102;47.716;10.296;2023-02-11T15:11:56;6.40;;;3.60;;
48285;SDS011;34102;47.716;10.296;2023-02-11T15:14:22;6.72;;;3.45;;
48285;SDS011;34102;47.716;10.296;2023-02-11T15:16:48;6.72;;;4.28;;
48285;SDS011;34102;47.716;10.296;2023-02-11T15:19:37;11.52;;;5.75;;
48285;SDS011;34102;47.716;10.296;2023-02-11T15:24:29;9.45;;;3.88;;
48285;SDS011;34102;47.716;10.296;2023-02-11T15:27:15;6.78;;;4.15;;
48285;SDS011;34102;47.716;10.296;2023-02-11T15:29:47;8.38;;;3.67;;
48285;SDS011;34102;47.716;10.296;2023-02-11T15:34:39;7.53;;;3.60;;
48285;SDS011;34102;47.716;10.296;2023-02-11T15:37:09;5.80;;;3.35;;
48285;SDS011;34102;47.716;10.296;2023-02-11T15:39:37;8.93;;;4.15;;
48285;SDS011;34102;47.716;10.296;2023-02-11T15:42:14;8.57;;;3.90;;
48285;SDS011;34102;47.716;10.296;2023-02-11T15:47:08;7.20;;;3.55;;
48285;SDS011;34102;47.716;10.296;2023-02-11T15:49:33;5.47;;;3.58;;
48285;SDS011;34102;47.716;10.296;2023-02-11T15:51:58;6.47;;;2.95;;
48285;SDS011;34102;47.716;10.296;2023-02-11T15:54:25;5.97;;;2.88;;
48285;SDS011;34102;47.716;10.296;2023-02-11T15:56:52;6.00;;;2.53;;
48285;SDS011;34102;47.716;10.296;2023-02-11T15:59:35;9.43;;;3.28;;
48285;SDS011;34102;47.716;10.296;2023-02-11T16:02:06;6.25;;;3.50;;
48285;SDS011;34102;47.716;10.296;2023-02-11T16:04:32;7.63;;;4.35;;
48285;SDS011;34102;47.716;10.296;2023-02-11T16:06:57;6.43;;;4.05;;
48285;SDS011;34102;47.716;10.296;2023-02-11T16:09:24;5.72;;;3.13;;
48285;SDS011;34102;47.716;10.296;2023-02-11T16:14:22;6.72;;;3.85;;
48285;SDS011;34102;47.716;10.296;2023-02-11T16:16:48;4.93;;;3.08;;
48285;SDS011;34102;47.716;10.296;2023-02-11T16:19:17;8.43;;;4.20;;
48285;SDS011;34102;47.716;10.296;2023-02-11T16:21:43;6.80;;;3.63;;
48285;SDS011;34102;47.716;10.296;2023-02-11T16:24:25;9.30;;;4.10;;
48285;SDS011;34102;47.716;10.296;2023-02-11T16:29:36;7.70;;;4.85;;
48285;SDS011;34102;47.716;10.296;2023-02-11T16:32:35;9.50;;;5.35;;
48285;SDS011;34102;47.716;10.296;2023-02-11T16:34:54;9.57;;;4.28;;
48285;SDS011;34102;47.716;10.296;2023-02-11T16:37:21;9.48;;;4.70;;
48285;SDS011;34102;47.716;10.296;2023-02-11T16:39:48;6.28;;;4.28;;
48285;SDS011;34102;47.716;10.296;2023-02-11T16:42:13;11.90;;;5.00;;
48285;SDS011;34102;47.716;10.296;2023-02-11T16:44:38;7.00;;;4.78;;
48285;SDS011;34102;47.716;10.296;2023-02-11T16:47:05;8.52;;;4.85;;
48285;SDS011;34102;47.716;10.296;2023-02-11T16:49:33;12.23;;;4.85;;
48285;SDS011;34102;47.716;10.296;2023-02-11T16:52:00;7.78;;;4.15;;
48285;SDS011;34102;47.716;10.296;2023-02-11T16:54:26;9.77;;;4.97;;
48285;SDS011;34102;47.716;10.296;2023-02-11T16:56:51;7.00;;;4.47;;
48285;SDS011;34102;47.716;10.296;2023-02-11T16:59:16;5.97;;;3.90;;
48285;SDS011;34102;47.716;10.296;2023-02-11T17:01:42;15.35;;;9.02;;
48285;SDS011;34102;47.716;10.296;2023-02-11T17:04:20;12.43;;;5.72;;
48285;SDS011;34102;47.716;10.296;2023-02-11T17:06:47;9.90;;;4.03;;
48285;SDS011;34102;47.716;10.296;2023-02-11T17:09:16;12.45;;;5.55;;
48285;SDS011;34102;47.716;10.296;2023-02-11T17:11:42;14.55;;;6.10;;
48285;SDS011;34102;47.716;10.296;2023-02-11T17:14:08;10.55;;;5.60;;
48285;SDS011;34102;47.716;10.296;2023-02-11T17:16:33;10.13;;;4.85;;
48285;SDS011;34102;47.716;10.296;2023-02-11T17:18:58;8.48;;;4.30;;
48285;SDS011;34102;47.716;10.296;2023-02-11T17:21:23;11.13;;;5.15;;
48285;SDS011;34102;47.716;10.296;2023-02-11T17:23:50;18.23;;;5.15;;
48285;SDS011;34102;47.716;10.296;2023-02-11T17:26:15;9.38;;;5.07;;
48285;SDS011;34102;47.716;10.296;2023-02-11T17:28:41;11.02;;;5.40;;
48285;SDS011;34102;47.716;10.296;2023-02-11T17:31:07;14.05;;;5.82;;
48285;SDS011;34102;47.716;10.296;2023-02-11T17:33:33;10.75;;;5.20;;
48285;SDS011;34102;47.716;10.296;2023-02-11T17:35:58;14.57;;;5.82;;
48285;SDS011;34102;47.716;10.296;2023-02-11T17:38:23;9.37;;;5.50;;
48285;SDS011;34102;47.716;10.296;2023-02-11T17:40:55;11.18;;;6.72;;
48285;SDS011;34102;47.716;10.296;2023-02-11T17:43:20;12.13;;;6.93;;
48285;SDS011;34102;47.716;10.296;2023-02-11T17:45:45;14.63;;;6.87;;
48285;SDS011;34102;47.716;10.296;2023-02-11T17:48:11;12.65;;;6.88;;
48285;SDS011;34102;47.716;10.296;2023-02-11T17:50:36;11.30;;;6.80;;
48285;SDS011;34102;47.716;10.296;2023-02-11T17:53:01;17.15;;;8.30;;
48285;SDS011;34102;47.716;10.296;2023-02-11T17:55:26;13.05;;;6.93;;
48285;SDS011;34102;47.716;10.296;2023-02-11T17:57:52;20.97;;;10.00;;
48285;SDS011;34102;47.716;10.296;2023-02-11T18:00:17;19.17;;;10.70;;
48285;SDS011;34102;47.716;10.296;2023-02-11T18:02:43;18.65;;;9.88;;
48285;SDS011;34102;47.716;10.296;2023-02-11T18:05:08;16.15;;;8.52;;
48285;SDS011;34102;47.716;10.296;2023-02-11T18:07:34;18.00;;;8.70;;
48285;SDS011;34102;47.716;10.296;2023-02-11T18:09:59;18.35;;;10.15;;
48285;SDS011;34102;47.716;10.296;2023-02-11T18:12:24;17.35;;;9.43;;
48285;SDS011;34102;47.716;10.296;2023-02-11T18:14:51;27.73;;;14.90;;
48285;SDS011;34102;47.716;10.296;2023-02-11T18:17:18;36.47;;;18.30;;
48285;SDS011;34102;47.716;10.296;2023-02-11T18:19:43;26.15;;;10.30;;
48285;SDS011;34102;47.716;10.296;2023-02-11T18:22:08;26.70;;;13.73;;
48285;SDS011;34102;47.716;10.296;2023-02-11T18:24:34;29.13;;;13.93;;
48285;SDS011;34102;47.716;10.296;2023-02-11T18:26:59;27.45;;;12.73;;
48285;SDS011;34102;47.716;10.296;2023-02-11T18:29:25;25.38;;;12.77;;
48285;SDS011;34102;47.716;10.296;2023-02-11T18:31:52;26.90;;;12.95;;
48285;SDS011;34102;47.716;10.296;2023-02-11T18:34:17;27.50;;;12.35;;
48285;SDS011;34102;47.716;10.296;2023-02-11T18:36:43;13.07;;;7.43;;
48285;SDS011;34102;47.716;10.296;2023-02-11T18:39:08;14.85;;;7.03;;
48285;SDS011;34102;47.716;10.296;2023-02-11T18:41:34;12.25;;;6.97;;
48285;SDS011;34102;47.716;10.296;2023-02-11T18:43:59;11.70;;;6.70;;
48285;SDS011;34102;47.716;10.296;2023-02-11T18:46:27;12.90;;;7.07;;
48285;SDS011;34102;47.716;10.296;2023-02-11T18:48:52;27.05;;;15.02;;
48285;SDS011;34102;47.716;10.296;2023-02-11T18:51:17;28.48;;;15.82;;
48285;SDS011;34102;47.716;10.296;2023-02-11T18:53:43;21.98;;;12.52;;
48285;SDS011;34102;47.716;10.296;2023-02-11T18:56:10;16.92;;;9.30;;
48285;SDS011;34102;47.716;10.296;2023-02-11T18:58:35;14.13;;;7.00;;
48285;SDS011;34102;47.716;10.296;2023-02-11T19:01:07;10.70;;;5.93;;
48285;SDS011;34102;47.716;10.296;2023-02-11T19:03:32;11.82;;;6.53;;
48285;SDS011;34102;47.716;10.296;2023-02-11T19:05:58;13.98;;;7.47;;
48285;SDS011;34102;47.716;10.296;2023-02-11T19:08:23;12.55;;;5.97;;
48285;SDS011;34102;47.716;10.296;2023-02-11T19:10:48;21.30;;;12.20;;
48285;SDS011;34102;47.716;10.296;2023-02-11T19:13:13;12.43;;;6.82;;
48285;SDS011;34102;47.716;10.296;2023-02-11T19:15:42;15.77;;;5.43;;
48285;SDS011;34102;47.716;10.296;2023-02-11T19:18:08;15.60;;;6.35;;
48285;SDS011;34102;47.716;10.296;2023-02-11T19:20:33;14.98;;;7.70;;
48285;SDS011;34102;47.716;10.296;2023-02-11T19:22:59;11.43;;;6.47;;
48285;SDS011;34102;47.716;10.296;2023-02-11T19:25:24;11.73;;;5.38;;
48285;SDS011;34102;47.716;10.296;2023-02-11T19:27:52;14.43;;;5.95;;
48285;SDS011;34102;47.716;10.296;2023-02-11T19:30:17;7.35;;;4.53;;
48285;SDS011;34102;47.716;10.296;2023-02-11T19:32:43;8.65;;;5.57;;
48285;SDS011;34102;47.716;10.296;2023-02-11T19:35:08;15.02;;;7.40;;
48285;SDS011;34102;47.716;10.296;2023-02-11T19:37:33;9.07;;;5.25;;
48285;SDS011;34102;47.716;10.296;2023-02-11T19:39:58;12.82;;;5.95;;
48285;SDS011;34102;47.716;10.296;2023-02-11T19:42:24;16.58;;;8.88;;
48285;SDS011;34102;47.716;10.296;2023-02-11T19:44:50;14.77;;;8.18;;
48285;SDS011;34102;47.716;10.296;2023-02-11T19:47:15;7.57;;;5.35;;
48285;SDS011;34102;47.716;10.296;2023-02-11T19:49:40;12.80;;;7.68;;
48285;SDS011;34102;47.716;10.296;2023-02-11T19:52:06;17.52;;;9.05;;
48285;SDS011;34102;47.716;10.296;2023-02-11T19:54:31;12.75;;;7.25;;
48285;SDS011;34102;47.716;10.296;2023-02-11T19:56:56;28.40;;;15.18;;
48285;SDS011;34102;47.716;10.296;2023-02-11T19:59:21;35.38;;;21.77;;
48285;SDS011;34102;47.716;10.296;2023-02-11T20:01:47;34.85;;;23.85;;
48285;SDS011;34102;47.716;10.296;2023-02-11T20:04:13;37.80;;;22.77;;
48285;SDS011;34102;47.716;10.296;2023-02-11T20:06:38;40.13;;;22.77;;
48285;SDS011;34102;47.716;10.296;2023-02-11T20:09:05;26.23;;;16.15;;
48285;SDS011;34102;47.716;10.296;2023-02-11T20:11:31;23.10;;;13.88;;
48285;SDS011;34102;47.716;10.296;2023-02-11T20:13:57;18.17;;;10.93;;
48285;SDS011;34102;47.716;10.296;2023-02-11T20:16:23;16.40;;;8.93;;
48285;SDS011;34102;47.716;10.296;2023-02-11T20:18:49;13.98;;;9.15;;
48285;SDS011;34102;47.716;10.296;2023-02-11T20:21:19;13.65;;;8.00;;
48285;SDS011;34102;47.716;10.296;2023-02-11T20:23:45;14.70;;;9.48;;
48285;SDS011;34102;47.716;10.296;2023-02-11T20:26:12;16.40;;;8.43;;
48285;SDS011;34102;47.716;10.296;2023-02-11T20:28:37;13.43;;;7.63;;
48285;SDS011;34102;47.716;10.296;2023-02-11T20:31:03;14.05;;;6.82;;
48285;SDS011;34102;47.716;10.296;2023-02-11T20:33:28;12.80;;;6.72;;
48285;SDS011;34102;47.716;10.296;2023-02-11T20:35:59;12.25;;;6.90;;
48285;SDS011;34102;47.716;10.296;2023-02-11T20:38:25;13.45;;;7.03;;
48285;SDS011;34102;47.716;10.296;2023-02-11T20:40:50;13.13;;;7.20;;
48285;SDS011;34102;47.716;10.296;2023-02-11T20:43:15;15.52;;;6.53;;
48285;SDS011;34102;47.716;10.296;2023-02-11T20:45:41;12.25;;;6.97;;
48285;SDS011;34102;47.716;10.296;2023-02-11T20:48:06;18.38;;;7.07;;
48285;SDS011;34102;47.716;10.296;2023-02-11T20:50:32;14.23;;;7.47;;
48285;SDS011;34102;47.716;10.296;2023-02-11T20:52:58;12.93;;;7.00;;
48285;SDS011;34102;47.716;10.296;2023-02-11T20:55:23;15.43;;;8.07;;
48285;SDS011;34102;47.716;10.296;2023-02-11T20:57:48;13.23;;;8.00;;
48285;SDS011;34102;47.716;10.296;2023-02-11T21:00:13;13.70;;;7.53;;
48285;SDS011;34102;47.716;10.296;2023-02-11T21:02:39;58.83;;;32.97;;
48285;SDS011;34102;47.716;10.296;2023-02-11T21:05:04;16.02;;;10.02;;
48285;SDS011;34102;47.716;10.296;2023-02-11T21:07:30;15.55;;;8.50;;
48285;SDS011;34102;47.716;10.296;2023-02-11T21:09:55;14.90;;;7.28;;
48285;SDS011;34102;47.716;10.296;2023-02-11T21:12:20;11.05;;;6.85;;
48285;SDS011;34102;47.716;10.296;2023-02-11T21:14:46;12.55;;;5.60;;
48285;SDS011;34102;47.716;10.296;2023-02-11T21:17:11;11.27;;;5.70;;
48285;SDS011;34102;47.716;10.296;2023-02-11T21:19:37;9.50;;;5.50;;
48285;SDS011;34102;47.716;10.296;2023-02-11T21:22:02;10.38;;;6.03;;
48285;SDS011;34102;47.716;10.296;2023-02-11T21:24:28;12.75;;;6.10;;
48285;SDS011;34102;47.716;10.296;2023-02-11T21:26:54;12.80;;;5.80;;
48285;SDS011;34102;47.716;10.296;2023-02-11T21:29:20;14.15;;;6.80;;
48285;SDS011;34102;47.716;10.296;2023-02-11T21:31:45;13.40;;;7.80;;
48285;SDS011;34102;47.716;10.296;2023-02-11T21:34:10;17.23;;;7.78;;
48285;SDS011;34102;47.716;10.296;2023-02-11T21:36:36;17.88;;;8.57;;
48285;SDS011;34102;47.716;10.296;2023-02-11T21:39:01;15.07;;;9.15;;
48285;SDS011;34102;47.716;10.296;2023-02-11T21:41:27;14.05;;;7.50;;
48285;SDS011;34102;47.716;10.296;2023-02-11T21:43:53;14.80;;;8.40;;
48285;SDS011;34102;47.716;10.296;2023-02-11T21:46:19;13.52;;;8.13;;
48285;SDS011;34102;47.716;10.296;2023-02-11T21:48:44;13.05;;;7.10;;
48285;SDS011;34102;47.716;10.296;2023-02-11T21:51:14;13.10;;;5.63;;
48285;SDS011;34102;47.716;10.296;2023-02-11T21:53:39;11.25;;;6.10;;
48285;SDS011;34102;47.716;10.296;2023-02-11T21:56:06;10.48;;;6.05;;
48285;SDS011;34102;47.716;10.296;2023-02-11T21:58:32;18.33;;;8.98;;
48285;SDS011;34102;47.716;10.296;2023-02-11T22:00:57;13.48;;;7.18;;
48285;SDS011;34102;47.716;10.296;2023-02-11T22:03:22;13.88;;;6.47;;
48285;SDS011;34102;47.716;10.296;2023-02-11T22:05:47;11.05;;;5.47;;
48285;SDS011;34102;47.716;10.296;2023-02-11T22:08:13;13.27;;;6.50;;
48285;SDS011;34102;47.716;10.296;2023-02-11T22:10:38;13.07;;;7.22;;
48285;SDS011;34102;47.716;10.296;2023-02-11T22:13:03;14.52;;;7.25;;
48285;SDS011;34102;47.716;10.296;2023-02-11T22:15:28;13.70;;;7.80;;
48285;SDS011;34102;47.716;10.296;2023-02-11T22:17:54;14.68;;;7.80;;
48285;SDS011;34102;47.716;10.296;2023-02-11T22:20:19;15.98;;;8.15;;
48285;SDS011;34102;47.716;10.296;2023-02-11T22:22:44;12.80;;;7.10;;
48285;SDS011;34102;47.716;10.296;2023-02-11T22:25:09;10.77;;;5.95;;
48285;SDS011;34102;47.716;10.296;2023-02-11T22:27:35;10.48;;;5.50;;
48285;SDS011;34102;47.716;10.296;2023-02-11T22:30:00;11.90;;;5.78;;
48285;SDS011;34102;47.716;10.296;2023-02-11T22:32:26;11.85;;;5.82;;
48285;SDS011;34102;47.716;10.296;2023-02-11T22:34:51;12.00;;;6.18;;
48285;SDS011;34102;47.716;10.296;2023-02-11T22:37:19;8.93;;;5.25;;
48285;SDS011;34102;47.716;10.296;2023-02-11T22:39:44;11.25;;;5.93;;
48285;SDS011;34102;47.716;10.296;2023-02-11T22:42:09;11.43;;;5.90;;
48285;SDS011;34102;47.716;10.296;2023-02-11T22:44:35;8.95;;;5.18;;
48285;SDS011;34102;47.716;10.296;2023-02-11T22:47:00;11.18;;;5.40;;
48285;SDS011;34102;47.716;10.296;2023-02-11T22:49:26;14.55;;;5.30;;
48285;SDS011;34102;47.716;10.296;2023-02-11T22:51:53;9.55;;;5.28;;
48285;SDS011;34102;47.716;10.296;2023-02-11T22:54:18;8.65;;;5.13;;
48285;SDS011;34102;47.716;10.296;2023-02-11T22:56:43;7.38;;;4.18;;
48285;SDS011;34102;47.716;10.296;2023-02-11T22:59:10;7.45;;;4.30;;
48285;SDS011;34102;47.716;10.296;2023-02-11T23:01:36;10.05;;;5.43;;
48285;SDS011;34102;47.716;10.296;2023-02-11T23:04:02;9.77;;;5.45;;
48285;SDS011;34102;47.716;10.296;2023-02-11T23:06:28;9.32;;;5.47;;
48285;SDS011;34102;47.716;10.296;2023-02-11T23:08:53;9.40;;;5.80;;
48285;SDS011;34102;47.716;10.296;2023-02-11T23:11:24;11.57;;;5.15;;
48285;SDS011;34102;47.716;10.296;2023-02-11T23:13:50;7.78;;;4.43;;